KCTB

Cut Bank International Airport

Cut Bank, Montana, USA
METAR KCTB 241956Z AUTO 29010KT 10SM CLR M03/M09 A2965 RMK AO2 SLP084 T10281094
Observed Flight Rules
Feb-24 @ 19:56 UTC (19 minutes ago) Visual Flight Rules
Wind Visibility Clouds
290° at 10 knots 10 miles
  • Clear skies
Temperatures Readings
Current -3°C / 27°F
Dewpoint -9°C / 16°F
Humidity 64%
Altimeter 29.65" Hg
Pressure 1008.4 hPa
Elevation 1175
METAR KCTB 241956Z AUTO 29010KT 10SM CLR M03/M09 A2965 RMK AO2 SLP084 T10281094
Observed Flight Rules
Feb-24 @ 19:56 UTC
(19 minutes ago)
VFR
Wind Visibility
290° at 10 knots 10 miles
Clouds
  • Clear skies
Temperature Dewpoint
-3°C / 27°F -9°C / 16°F
Humidity Altimeter Pressure
64% 29.65" Hg 1008.4 hPa